sensor_id;sensor_type;location;lat;lon;timestamp;P1;durP1;ratioP1;P2;durP2;ratioP2
69213;SDS011;56325;47.030;18.518;2022-08-01T00:00:59;2.83;;;2.10;;
69213;SDS011;56325;47.030;18.518;2022-08-01T00:04:34;2.20;;;2.10;;
69213;SDS011;56325;47.030;18.518;2022-08-01T00:08:39;3.50;;;1.87;;
69213;SDS011;56325;47.030;18.518;2022-08-01T00:12:02;8.60;;;2.08;;
69213;SDS011;56325;47.030;18.518;2022-08-01T00:15:51;2.55;;;2.35;;
69213;SDS011;56325;47.030;18.518;2022-08-01T00:19:34;2.08;;;2.00;;
69213;SDS011;56325;47.030;18.518;2022-08-01T00:22:57;3.80;;;2.03;;
69213;SDS011;56325;47.030;18.518;2022-08-01T00:26:26;2.33;;;2.20;;
69213;SDS011;56325;47.030;18.518;2022-08-01T00:29:53;3.33;;;2.30;;
69213;SDS011;56325;47.030;18.518;2022-08-01T00:33:35;7.40;;;2.53;;
69213;SDS011;56325;47.030;18.518;2022-08-01T00:37:18;2.17;;;2.08;;
69213;SDS011;56325;47.030;18.518;2022-08-01T00:40:41;2.20;;;2.10;;
69213;SDS011;56325;47.030;18.518;2022-08-01T00:44:16;2.10;;;2.00;;
69213;SDS011;56325;47.030;18.518;2022-08-01T00:47:59;2.45;;;2.35;;
69213;SDS011;56325;47.030;18.518;2022-08-01T00:51:22;2.60;;;2.50;;
69213;SDS011;56325;47.030;18.518;2022-08-01T00:54:45;6.85;;;2.50;;
69213;SDS011;56325;47.030;18.518;2022-08-01T00:58:10;2.45;;;2.33;;
69213;SDS011;56325;47.030;18.518;2022-08-01T01:01:50;2.45;;;2.28;;
69213;SDS011;56325;47.030;18.518;2022-08-01T01:06:28;2.50;;;2.30;;
69213;SDS011;56325;47.030;18.518;2022-08-01T01:09:55;3.72;;;2.22;;
69213;SDS011;56325;47.030;18.518;2022-08-01T01:13:43;2.50;;;2.40;;
69213;SDS011;56325;47.030;18.518;2022-08-01T01:17:31;2.72;;;2.20;;
69213;SDS011;56325;47.030;18.518;2022-08-01T01:25:09;2.72;;;2.53;;
69213;SDS011;56325;47.030;18.518;2022-08-01T01:33:01;3.28;;;2.47;;
69213;SDS011;56325;47.030;18.518;2022-08-01T01:36:43;3.92;;;2.55;;
69213;SDS011;56325;47.030;18.518;2022-08-01T01:40:22;2.53;;;2.42;;
69213;SDS011;56325;47.030;18.518;2022-08-01T01:44:03;2.53;;;2.40;;
69213;SDS011;56325;47.030;18.518;2022-08-01T01:47:43;2.05;;;1.95;;
69213;SDS011;56325;47.030;18.518;2022-08-01T01:51:24;2.60;;;2.50;;
69213;SDS011;56325;47.030;18.518;2022-08-01T01:55:04;2.50;;;2.40;;
69213;SDS011;56325;47.030;18.518;2022-08-01T01:58:44;3.55;;;2.60;;
69213;SDS011;56325;47.030;18.518;2022-08-01T02:02:26;2.50;;;2.40;;
69213;SDS011;56325;47.030;18.518;2022-08-01T02:06:06;3.85;;;2.58;;
69213;SDS011;56325;47.030;18.518;2022-08-01T08:00:29;12.95;;;2.12;;
69213;SDS011;56325;47.030;18.518;2022-08-01T08:04:32;2.15;;;1.95;;
69213;SDS011;56325;47.030;18.518;2022-08-01T08:07:55;3.00;;;2.05;;
69213;SDS011;56325;47.030;18.518;2022-08-01T08:11:49;4.20;;;1.83;;
69213;SDS011;56325;47.030;18.518;2022-08-01T08:14:56;2.12;;;1.58;;
69213;SDS011;56325;47.030;18.518;2022-08-01T08:18:02;1.90;;;1.80;;
69213;SDS011;56325;47.030;18.518;2022-08-01T08:21:06;2.17;;;1.90;;
69213;SDS011;56325;47.030;18.518;2022-08-01T08:24:09;2.00;;;1.90;;
69213;SDS011;56325;47.030;18.518;2022-08-01T08:27:56;3.45;;;1.80;;
69213;SDS011;56325;47.030;18.518;2022-08-01T08:31:04;4.22;;;1.70;;
69213;SDS011;56325;47.030;18.518;2022-08-01T08:34:27;20.05;;;2.03;;
69213;SDS011;56325;47.030;18.518;2022-08-01T08:37:52;1.70;;;1.60;;
69213;SDS011;56325;47.030;18.518;2022-08-01T08:41:20;3.87;;;1.40;;
69213;SDS011;56325;47.030;18.518;2022-08-01T08:44:25;2.90;;;1.60;;
69213;SDS011;56325;47.030;18.518;2022-08-01T08:48:02;3.78;;;1.62;;
69213;SDS011;56325;47.030;18.518;2022-08-01T08:51:09;2.10;;;1.33;;
69213;SDS011;56325;47.030;18.518;2022-08-01T08:54:13;1.77;;;1.33;;
69213;SDS011;56325;47.030;18.518;2022-08-01T08:57:32;1.30;;;1.30;;
69213;SDS011;56325;47.030;18.518;2022-08-01T09:05:29;5.87;;;1.55;;
69213;SDS011;56325;47.030;18.518;2022-08-01T09:08:41;1.70;;;1.60;;
69213;SDS011;56325;47.030;18.518;2022-08-01T09:12:04;1.17;;;1.08;;
69213;SDS011;56325;47.030;18.518;2022-08-01T09:15:39;1.30;;;1.20;;
69213;SDS011;56325;47.030;18.518;2022-08-01T09:19:19;1.60;;;1.35;;
69213;SDS011;56325;47.030;18.518;2022-08-01T09:22:45;3.08;;;1.20;;
69213;SDS011;56325;47.030;18.518;2022-08-01T09:25:50;1.40;;;1.40;;
69213;SDS011;56325;47.030;18.518;2022-08-01T09:29:19;1.97;;;1.47;;
69213;SDS011;56325;47.030;18.518;2022-08-01T09:33:04;2.28;;;1.50;;
69213;SDS011;56325;47.030;18.518;2022-08-01T09:36:51;5.05;;;1.77;;
69213;SDS011;56325;47.030;18.518;2022-08-01T09:39:58;1.17;;;1.17;;
69213;SDS011;56325;47.030;18.518;2022-08-01T09:43:12;1.67;;;1.58;;
69213;SDS011;56325;47.030;18.518;2022-08-01T09:46:43;1.80;;;1.70;;
69213;SDS011;56325;47.030;18.518;2022-08-01T09:49:56;3.28;;;1.70;;
69213;SDS011;56325;47.030;18.518;2022-08-01T09:53:47;1.80;;;1.17;;
69213;SDS011;56325;47.030;18.518;2022-08-01T09:57:31;3.12;;;1.20;;
69213;SDS011;56325;47.030;18.518;2022-08-01T10:01:13;1.62;;;1.52;;
69213;SDS011;56325;47.030;18.518;2022-08-01T10:04:45;1.80;;;1.70;;
69213;SDS011;56325;47.030;18.518;2022-08-01T10:08:21;1.58;;;1.48;;
69213;SDS011;56325;47.030;18.518;2022-08-01T10:12:13;1.90;;;1.60;;
69213;SDS011;56325;47.030;18.518;2022-08-01T10:15:39;1.60;;;1.40;;
69213;SDS011;56325;47.030;18.518;2022-08-01T10:19:07;3.45;;;2.90;;
69213;SDS011;56325;47.030;18.518;2022-08-01T10:22:54;1.83;;;1.58;;
69213;SDS011;56325;47.030;18.518;2022-08-01T10:27:03;2.37;;;1.83;;
69213;SDS011;56325;47.030;18.518;2022-08-01T10:30:43;1.70;;;1.60;;
69213;SDS011;56325;47.030;18.518;2022-08-01T11:23:46;1.40;;;1.30;;
69213;SDS011;56325;47.030;18.518;2022-08-01T11:27:30;4.40;;;1.58;;
69213;SDS011;56325;47.030;18.518;2022-08-01T11:34:53;1.65;;;1.42;;
69213;SDS011;56325;47.030;18.518;2022-08-01T11:38:33;3.10;;;1.50;;
69213;SDS011;56325;47.030;18.518;2022-08-01T11:49:49;1.48;;;1.48;;
69213;SDS011;56325;47.030;18.518;2022-08-01T11:53:55;3.83;;;1.55;;
69213;SDS011;56325;47.030;18.518;2022-08-01T12:02:15;1.48;;;1.48;;
69213;SDS011;56325;47.030;18.518;2022-08-01T12:06:13;5.00;;;1.62;;
69213;SDS011;56325;47.030;18.518;2022-08-01T12:10:05;5.05;;;1.85;;
69213;SDS011;56325;47.030;18.518;2022-08-01T12:13:39;1.73;;;1.62;;
69213;SDS011;56325;47.030;18.518;2022-08-01T12:16:48;4.37;;;1.60;;
69213;SDS011;56325;47.030;18.518;2022-08-01T12:20:46;4.97;;;1.58;;
69213;SDS011;56325;47.030;18.518;2022-08-01T12:24:42;1.75;;;1.65;;
69213;SDS011;56325;47.030;18.518;2022-08-01T12:28:17;1.45;;;1.35;;
69213;SDS011;56325;47.030;18.518;2022-08-01T12:32:02;1.50;;;1.50;;
69213;SDS011;56325;47.030;18.518;2022-08-01T12:35:16;2.47;;;1.77;;
69213;SDS011;56325;47.030;18.518;2022-08-01T12:38:51;1.60;;;1.58;;
69213;SDS011;56325;47.030;18.518;2022-08-01T12:42:00;1.70;;;1.60;;
69213;SDS011;56325;47.030;18.518;2022-08-01T12:45:45;2.00;;;1.62;;
69213;SDS011;56325;47.030;18.518;2022-08-01T12:57:33;2.35;;;2.00;;
69213;SDS011;56325;47.030;18.518;2022-08-01T13:05:27;1.48;;;1.48;;
69213;SDS011;56325;47.030;18.518;2022-08-01T13:09:05;3.05;;;1.50;;
69213;SDS011;56325;47.030;18.518;2022-08-01T13:16:47;1.60;;;1.50;;
69213;SDS011;56325;47.030;18.518;2022-08-01T13:20:36;1.62;;;1.45;;
69213;SDS011;56325;47.030;18.518;2022-08-01T13:24:02;1.60;;;1.50;;
69213;SDS011;56325;47.030;18.518;2022-08-01T13:27:20;3.12;;;1.50;;
69213;SDS011;56325;47.030;18.518;2022-08-01T13:31:10;1.52;;;1.42;;
69213;SDS011;56325;47.030;18.518;2022-08-01T13:34:39;1.70;;;1.60;;
69213;SDS011;56325;47.030;18.518;2022-08-01T13:38:05;1.48;;;1.37;;
69213;SDS011;56325;47.030;18.518;2022-08-01T13:41:49;4.22;;;1.50;;
69213;SDS011;56325;47.030;18.518;2022-08-01T13:45:14;1.62;;;1.50;;
69213;SDS011;56325;47.030;18.518;2022-08-01T13:57:14;1.60;;;1.50;;
69213;SDS011;56325;47.030;18.518;2022-08-01T14:00:38;1.60;;;1.50;;
69213;SDS011;56325;47.030;18.518;2022-08-01T14:04:18;3.05;;;1.20;;
69213;SDS011;56325;47.030;18.518;2022-08-01T14:08:02;2.90;;;1.40;;
69213;SDS011;56325;47.030;18.518;2022-08-01T14:11:37;1.20;;;1.10;;
69213;SDS011;56325;47.030;18.518;2022-08-01T14:15:26;1.35;;;1.35;;
69213;SDS011;56325;47.030;18.518;2022-08-01T14:18:41;2.25;;;1.50;;
69213;SDS011;56325;47.030;18.518;2022-08-01T14:34:24;1.62;;;1.52;;
69213;SDS011;56325;47.030;18.518;2022-08-01T15:29:07;1.20;;;1.10;;
69213;SDS011;56325;47.030;18.518;2022-08-01T15:32:53;1.00;;;1.00;;
69213;SDS011;56325;47.030;18.518;2022-08-01T15:36:22;1.20;;;1.20;;
69213;SDS011;56325;47.030;18.518;2022-08-01T15:39:47;3.70;;;1.00;;
69213;SDS011;56325;47.030;18.518;2022-08-01T16:09:26;2.05;;;1.30;;
69213;SDS011;56325;47.030;18.518;2022-08-01T16:12:56;3.55;;;1.12;;
69213;SDS011;56325;47.030;18.518;2022-08-01T16:20:38;4.78;;;1.10;;
69213;SDS011;56325;47.030;18.518;2022-08-01T16:41:36;4.57;;;1.20;;
69213;SDS011;56325;47.030;18.518;2022-08-01T16:45:13;7.05;;;1.25;;
69213;SDS011;56325;47.030;18.518;2022-08-01T16:48:49;1.42;;;1.42;;
69213;SDS011;56325;47.030;18.518;2022-08-01T16:52:15;2.83;;;1.05;;
69213;SDS011;56325;47.030;18.518;2022-08-01T16:55:24;3.40;;;1.27;;
69213;SDS011;56325;47.030;18.518;2022-08-01T16:59:40;2.28;;;1.37;;
69213;SDS011;56325;47.030;18.518;2022-08-01T17:11:37;1.10;;;1.10;;
69213;SDS011;56325;47.030;18.518;2022-08-01T17:15:21;1.30;;;1.20;;
69213;SDS011;56325;47.030;18.518;2022-08-01T17:18:27;2.25;;;1.23;;
69213;SDS011;56325;47.030;18.518;2022-08-01T17:21:55;1.40;;;1.30;;
69213;SDS011;56325;47.030;18.518;2022-08-01T17:25:18;4.20;;;1.50;;
69213;SDS011;56325;47.030;18.518;2022-08-01T17:32:53;1.40;;;1.30;;
69213;SDS011;56325;47.030;18.518;2022-08-01T17:48:27;2.75;;;1.55;;
69213;SDS011;56325;47.030;18.518;2022-08-01T17:52:31;7.43;;;1.58;;
69213;SDS011;56325;47.030;18.518;2022-08-01T17:56:09;5.82;;;1.75;;
69213;SDS011;56325;47.030;18.518;2022-08-01T18:08:10;2.42;;;1.62;;
69213;SDS011;56325;47.030;18.518;2022-08-01T18:12:24;2.33;;;1.70;;
69213;SDS011;56325;47.030;18.518;2022-08-01T19:24:04;13.27;;;2.35;;
69213;SDS011;56325;47.030;18.518;2022-08-01T19:27:28;4.80;;;2.00;;
69213;SDS011;56325;47.030;18.518;2022-08-01T19:30:45;3.62;;;2.17;;
69213;SDS011;56325;47.030;18.518;2022-08-01T19:41:17;1.98;;;1.85;;
69213;SDS011;56325;47.030;18.518;2022-08-01T19:53:13;4.90;;;1.90;;
69213;SDS011;56325;47.030;18.518;2022-08-01T19:56:19;3.12;;;2.03;;
69213;SDS011;56325;47.030;18.518;2022-08-01T19:59:23;7.75;;;2.42;;
69213;SDS011;56325;47.030;18.518;2022-08-01T20:02:26;4.35;;;1.92;;
69213;SDS011;56325;47.030;18.518;2022-08-01T20:05:51;2.35;;;1.80;;
69213;SDS011;56325;47.030;18.518;2022-08-01T20:08:56;6.37;;;2.22;;
69213;SDS011;56325;47.030;18.518;2022-08-01T20:12:01;3.97;;;2.53;;
69213;SDS011;56325;47.030;18.518;2022-08-01T20:15:14;10.30;;;2.10;;
69213;SDS011;56325;47.030;18.518;2022-08-01T20:18:18;2.62;;;2.17;;
69213;SDS011;56325;47.030;18.518;2022-08-01T20:33:42;4.15;;;1.92;;
69213;SDS011;56325;47.030;18.518;2022-08-01T20:36:49;9.15;;;2.00;;
69213;SDS011;56325;47.030;18.518;2022-08-01T20:40:04;5.32;;;1.83;;
69213;SDS011;56325;47.030;18.518;2022-08-01T20:43:16;6.32;;;1.73;;
69213;SDS011;56325;47.030;18.518;2022-08-01T20:46:25;6.18;;;2.10;;
69213;SDS011;56325;47.030;18.518;2022-08-01T20:49:36;2.03;;;1.92;;
69213;SDS011;56325;47.030;18.518;2022-08-01T20:52:46;4.15;;;1.92;;
69213;SDS011;56325;47.030;18.518;2022-08-01T20:55:57;6.12;;;1.67;;
69213;SDS011;56325;47.030;18.518;2022-08-01T21:03:21;7.32;;;2.00;;
69213;SDS011;56325;47.030;18.518;2022-08-01T21:11:08;2.45;;;1.85;;
69213;SDS011;56325;47.030;18.518;2022-08-01T21:15:14;3.78;;;1.60;;
69213;SDS011;56325;47.030;18.518;2022-08-01T21:18:37;5.03;;;1.92;;
69213;SDS011;56325;47.030;18.518;2022-08-01T21:26:16;9.07;;;2.00;;
69213;SDS011;56325;47.030;18.518;2022-08-01T21:30:04;2.37;;;2.00;;
69213;SDS011;56325;47.030;18.518;2022-08-01T21:33:10;4.68;;;1.87;;
69213;SDS011;56325;47.030;18.518;2022-08-01T21:36:34;5.82;;;1.80;;
69213;SDS011;56325;47.030;18.518;2022-08-01T21:39:48;7.10;;;1.80;;
69213;SDS011;56325;47.030;18.518;2022-08-01T21:42:52;2.67;;;1.70;;
69213;SDS011;56325;47.030;18.518;2022-08-01T21:45:58;5.70;;;2.37;;
69213;SDS011;56325;47.030;18.518;2022-08-01T21:49:04;5.55;;;1.87;;
69213;SDS011;56325;47.030;18.518;2022-08-01T21:52:12;4.97;;;2.10;;
69213;SDS011;56325;47.030;18.518;2022-08-01T21:56:10;3.78;;;2.10;;
69213;SDS011;56325;47.030;18.518;2022-08-01T22:00:14;4.07;;;1.85;;
69213;SDS011;56325;47.030;18.518;2022-08-01T22:03:54;5.78;;;2.00;;
69213;SDS011;56325;47.030;18.518;2022-08-01T22:07:11;5.05;;;2.15;;
69213;SDS011;56325;47.030;18.518;2022-08-01T22:10:20;6.62;;;1.73;;
69213;SDS011;56325;47.030;18.518;2022-08-01T22:13:45;1.87;;;1.70;;
69213;SDS011;56325;47.030;18.518;2022-08-01T22:16:49;2.12;;;2.03;;
69213;SDS011;56325;47.030;18.518;2022-08-01T22:19:55;10.07;;;2.00;;
69213;SDS011;56325;47.030;18.518;2022-08-01T22:23:19;4.20;;;2.28;;
69213;SDS011;56325;47.030;18.518;2022-08-01T22:26:24;5.15;;;2.03;;
69213;SDS011;56325;47.030;18.518;2022-08-01T22:29:31;3.45;;;1.60;;
69213;SDS011;56325;47.030;18.518;2022-08-01T22:32:40;1.60;;;1.60;;
69213;SDS011;56325;47.030;18.518;2022-08-01T22:35:45;4.12;;;1.80;;
69213;SDS011;56325;47.030;18.518;2022-08-01T22:38:51;1.87;;;1.77;;
69213;SDS011;56325;47.030;18.518;2022-08-01T22:41:55;2.28;;;1.83;;
69213;SDS011;56325;47.030;18.518;2022-08-01T22:45:59;1.98;;;1.87;;
69213;SDS011;56325;47.030;18.518;2022-08-01T22:52:54;1.80;;;1.70;;
69213;SDS011;56325;47.030;18.518;2022-08-01T22:56:28;1.83;;;1.73;;
69213;SDS011;56325;47.030;18.518;2022-08-01T22:59:56;4.35;;;1.87;;
69213;SDS011;56325;47.030;18.518;2022-08-01T23:03:50;4.55;;;2.00;;
69213;SDS011;56325;47.030;18.518;2022-08-01T23:06:58;5.18;;;1.80;;
69213;SDS011;56325;47.030;18.518;2022-08-01T23:10:31;5.25;;;1.80;;
69213;SDS011;56325;47.030;18.518;2022-08-01T23:14:09;2.10;;;1.90;;
69213;SDS011;56325;47.030;18.518;2022-08-01T23:17:49;2.35;;;1.70;;
69213;SDS011;56325;47.030;18.518;2022-08-01T23:25:08;1.90;;;1.80;;
69213;SDS011;56325;47.030;18.518;2022-08-01T23:28:49;2.20;;;2.10;;
69213;SDS011;56325;47.030;18.518;2022-08-01T23:32:28;4.55;;;2.10;;
69213;SDS011;56325;47.030;18.518;2022-08-01T23:36:06;1.90;;;1.80;;
69213;SDS011;56325;47.030;18.518;2022-08-01T23:39:45;2.00;;;1.90;;
69213;SDS011;56325;47.030;18.518;2022-08-01T23:43:24;11.52;;;2.30;;
69213;SDS011;56325;47.030;18.518;2022-08-01T23:47:02;4.15;;;2.28;;
69213;SDS011;56325;47.030;18.518;2022-08-01T23:50:41;2.65;;;2.20;;
69213;SDS011;56325;47.030;18.518;2022-08-01T23:54:19;11.18;;;2.50;;
69213;SDS011;56325;47.030;18.518;2022-08-01T23:57:56;4.72;;;2.40;;
